Cape Newenham Lrrs Airport
PAEH : now visible

Aeroporto :











RITROVATECI SU...

 
LOGIN :

Iscrizione | Disclaimer

   EN    FR    IT 

 









Sommario :    VFR   VFR Marginale   IFR   IFR Intensivo   IFR Molto Intensivo
Visibilità : 
Base nubi : 
>= 8 km
>= 3000ft
5 / 8 km
1000 / 3000 ft
1500m / 5 km
500 / 1000 ft
800 / 1500m
200 / 500 ft
< 800m
< 200 ft
Simboli :   Temporali  Nebbia  Neve Forte  Precipitazioni Forti  Vento > 20 kt






- Altitudine del aeroporto : 541 ft
- Codice IATA : EHM


PAEH - Cape Newenham Lrrs

ULTIMO METAR :
  • 301555Z AUTO 00000KT 10SM CLR 11/M01 A2977 RMK AO2 SLP081 T01091008 $

METARs OBSOLETI :
  • 301455Z AUTO 17001G12KT 10SM CLR 12/M01 A2978 RMK AO2 SLP084 T01171013 56016 $
  • 301355Z AUTO 17008G10KT 10SM CLR 12/M01 A2979 RMK AO2 SLP087 T01191010 $

Previsioni scadute.
FIR PAZA / America del Nord



MetMap, La meteo Aeronautica in un colpo d'occhio ! - Copyright ORBIFLY Dicembre 2007 - Disclaimer

ORBIFLY MET'MAP TEAM :

Programmazione e sviluppo : Alexandra Zaïnal
Concezione : Baudouin d'Aumeries
Aiuto per la programmazione : Marc-Olivier Méhu
Supporto tecnico e logistico : Manuel Goepfert
Aiuto per la traduzione : Arnaldo La Scala

Contatto : metmap@orbifly.com




FONTI E CREDITI :

   NOAA       Earth
Advisory